Time;durP1;ratioP1;P1;durP2;ratioP2;P2;SDS_P1;SDS_P2;PMS_P1;PMS_P2;Temp;Humidity;BMP_temperature;BMP_pressure;BME280_temperature;BME280_humidity;BME280_pressure;Samples;Min_cycle;Max_cycle;Signal;HPM_P1;HPM_P2
2021/05/30 00:00:16;;;;;;;6.93;4.60;;;;;;;;;;3600597;39;20375;-70
2021/05/30 00:02:43;;;;;;;5.78;4.90;;;;;;;;;;3600371;39;20393;-70
2021/05/30 00:05:10;;;;;;;7.68;5.00;;;;;;;;;;3593396;40;20403;-70
2021/05/30 00:07:37;;;;;;;8.07;4.80;;;;;;;;;;3598890;39;20424;-70
2021/05/30 00:10:04;;;;;;;5.40;4.57;;;;;;;;;;3582569;39;20408;-70
2021/05/30 00:12:30;;;;;;;6.50;4.75;;;;;;;;;;3576056;40;20462;-70
2021/05/30 00:14:56;;;;;;;6.10;4.75;;;;;;;;;;3586910;40;20410;-70
2021/05/30 00:17:23;;;;;;;6.95;5.07;;;;;;;;;;3597390;39;20760;-69
2021/05/30 00:19:49;;;;;;;7.82;4.90;;;;;;;;;;3596898;39;20769;-70
2021/05/30 00:22:15;;;;;;;7.53;4.70;;;;;;;;;;3602082;39;20388;-70
2021/05/30 00:24:42;;;;;;;6.45;5.35;;;;;;;;;;3592105;39;20649;-70
2021/05/30 00:27:08;;;;;;;5.73;4.47;;;19.30;97.50;;;;;;3598295;39;20794;-70
2021/05/30 00:29:34;;;;;;;5.53;4.73;;;19.20;91.50;;;;;;3604814;39;20363;-70
2021/05/30 00:32:00;;;;;;;6.07;4.83;;;19.20;91.30;;;;;;3589624;39;20412;-70
2021/05/30 00:34:26;;;;;;;6.03;4.10;;;19.10;91.70;;;;;;3596644;39;20453;-69
2021/05/30 00:36:52;;;;;;;6.18;4.53;;;19.10;91.50;;;;;;3592027;39;20454;-70
2021/05/30 00:39:18;;;;;;;4.72;4.30;;;;;;;;;;3584561;40;20395;-70
2021/05/30 00:41:45;;;;;;;6.35;4.53;;;;;;;;;;3584487;40;20394;-70
2021/05/30 00:44:22;;;;;;;6.53;4.72;;;;;;;;;;3593391;39;20406;-70
2021/05/30 00:46:48;;;;;;;7.32;4.63;;;;;;;;;;3600884;39;20713;-70
2021/05/30 00:49:14;;;;;;;5.10;4.60;;;;;;;;;;3596960;39;20443;-70
2021/05/30 00:51:40;;;;;;;7.57;4.93;;;;;;;;;;3593383;39;20378;-69
2021/05/30 00:54:07;;;;;;;5.93;4.30;;;;;;;;;;3592166;39;20723;-69
2021/05/30 00:56:33;;;;;;;5.85;4.60;;;;;;;;;;3589354;39;20755;-69
2021/05/30 00:59:01;;;;;;;6.20;4.32;;;;;;;;;;3594669;39;20371;-69
2021/05/30 01:01:27;;;;;;;6.60;5.03;;;;;;;;;;3592438;39;20386;-70
2021/05/30 01:03:53;;;;;;;5.57;4.47;;;;;;;;;;3592271;39;20477;-70
2021/05/30 01:06:19;;;;;;;5.00;4.50;;;;;;;;;;3598217;39;20613;-69
2021/05/30 01:08:46;;;;;;;6.03;4.50;;;;;;;;;;3601162;39;20470;-70
2021/05/30 01:11:14;;;;;;;5.63;4.63;;;;;;;;;;3595316;39;20395;-70
2021/05/30 01:13:40;;;;;;;6.07;4.57;;;;;;;;;;3578475;40;20642;-69
2021/05/30 01:16:08;;;;;;;6.70;4.95;;;;;;;;;;3591540;39;20393;-70
2021/05/30 01:18:34;;;;;;;6.78;4.40;;;;;;;;;;3587432;39;20399;-70
2021/05/30 01:21:00;;;;;;;5.13;4.65;;;;;;;;;;3587092;40;20400;-70
2021/05/30 01:23:27;;;;;;;5.70;3.83;;;;;;;;;;3596640;40;20378;-70
2021/05/30 01:25:53;;;;;;;4.57;3.70;;;;;;;;;;3592828;39;20629;-70
2021/05/30 01:28:20;;;;;;;4.05;3.42;;;;;;;;;;3600700;39;20757;-70
2021/05/30 01:30:46;;;;;;;4.85;3.22;;;;;;;;;;3598891;39;20383;-70
2021/05/30 01:33:12;;;;;;;4.20;2.80;;;;;;;;;;3594519;39;20785;-70
2021/05/30 01:35:38;;;;;;;4.15;2.60;;;;;;;;;;3598003;39;20647;-70
2021/05/30 01:38:05;;;;;;;3.10;2.75;;;;;;;;;;3596657;39;20375;-70
2021/05/30 01:40:32;;;;;;;2.85;2.30;;;;;;;;;;3596491;39;20446;-70
2021/05/30 01:42:58;;;;;;;3.17;2.65;;;;;;;;;;3593789;39;20454;-70
2021/05/30 01:45:28;;;;;;;2.58;2.35;;;;;;;;;;3601107;39;20368;-70
2021/05/30 01:47:54;;;;;;;4.60;2.28;;;;;;;;;;3596483;39;20391;-70
2021/05/30 01:50:21;;;;;;;2.57;2.00;;;;;;;;;;3591381;39;20729;-69
2021/05/30 01:52:48;;;;;;;3.80;2.17;;;;;;;;;;3596496;39;20389;-70
2021/05/30 01:58:05;;;;;;;2.58;1.80;;;;;;;;;;3579548;39;20386;-70
2021/05/30 02:00:35;;;;;;;3.03;2.30;;;;;;;;;;3593522;39;20383;-69
2021/05/30 02:03:01;;;;;;;2.70;1.98;;;;;;;;;;3593686;39;20384;-70
2021/05/30 02:05:28;;;;;;;2.10;1.60;;;;;;;;;;3591760;39;20389;-70
2021/05/30 02:07:54;;;;;;;1.92;1.73;;;;;;;;;;3593789;39;20487;-70
2021/05/30 02:10:21;;;;;;;2.83;1.83;;;;;;;;;;3594240;39;20370;-70
2021/05/30 02:12:48;;;;;;;2.83;2.00;;;;;;;;;;3591620;39;20368;-70
2021/05/30 02:15:16;;;;;;;4.03;2.13;;;;;;;;;;3596154;39;20372;-70
2021/05/30 02:17:42;;;;;;;2.30;2.10;;;;;;;;;;3596531;39;20749;-69
2021/05/30 02:20:09;;;;;;;3.38;1.67;;;;;;;;;;3586540;39;20412;-70
2021/05/30 02:22:36;;;;;;;1.95;1.40;;;;;;;;;;3593111;39;20374;-70
2021/05/30 02:25:02;;;;;;;2.22;1.70;;;;;;;;;;3598806;39;20662;-69
2021/05/30 02:27:28;;;;;;;2.13;1.55;;;;;;;;;;3596182;39;20372;-70
2021/05/30 02:29:54;;;;;;;2.03;1.60;;;;;;;;;;3581651;40;20680;-70
2021/05/30 02:32:21;;;;;;;1.47;1.33;;;;;;;;;;3577401;39;20402;-69
2021/05/30 02:34:48;;;;;;;4.38;1.70;;;;;;;;;;3590850;39;20379;-69
2021/05/30 02:37:15;;;;;;;3.75;1.30;;;;;;;;;;3589722;39;20378;-69
2021/05/30 02:39:41;;;;;;;2.03;1.55;;;;;;;;;;3596433;39;20372;-70
2021/05/30 02:42:08;;;;;;;1.92;1.35;;;;;;;;;;3596126;39;20369;-69
2021/05/30 02:44:34;;;;;;;2.00;1.10;;;;;;;;;;3593195;39;20467;-69
2021/05/30 02:47:00;;;;;;;1.90;1.10;;;;;;;;;;3592332;39;20369;-70
2021/05/30 02:49:29;;;;;;;1.77;1.10;;;;;;;;;;3594631;39;20390;-70
2021/05/30 02:51:55;;;;;;;1.50;1.05;;;;;;;;;;3596632;39;20393;-69
2021/05/30 02:54:22;;;;;;;2.47;1.37;;;;;;;;;;3598165;39;20373;-70
2021/05/30 02:56:48;;;;;;;2.20;1.20;;;;;;;;;;3596003;39;20381;-70
2021/05/30 02:59:14;;;;;;;2.50;1.20;;;;;;;;;;3597109;39;20368;-72
2021/05/30 03:01:40;;;;;;;1.23;0.87;;;;;;;;;;3595282;39;20365;-72
2021/05/30 03:04:06;;;;;;;1.63;1.13;;;;;;;;;;3598656;39;20375;-73
2021/05/30 03:06:33;;;;;;;1.95;1.20;;;;;;;;;;3588054;40;20403;-73
2021/05/30 03:09:00;;;;;;;3.00;1.20;;;;;;;;;;3592781;39;20378;-73
2021/05/30 03:11:26;;;;;;;2.25;1.05;;;;;;;;;;3598285;39;20759;-72
2021/05/30 03:13:53;;;;;;;1.67;0.90;;;;;;;;;;3598375;39;20391;-73
2021/05/30 03:16:19;;;;;;;1.42;0.90;;;;;;;;;;3589015;40;20416;-72
2021/05/30 03:18:46;;;;;;;1.90;1.10;;;;;;;;;;3596260;39;20384;-72
2021/05/30 03:21:12;;;;;;;2.20;1.00;;;;;;;;;;3596090;39;20619;-72
2021/05/30 03:23:39;;;;;;;1.95;0.90;;;;;;;;;;3596366;39;20693;-72
2021/05/30 03:26:06;;;;;;;1.70;1.20;;;;;;;;;;3602909;39;20365;-73
2021/05/30 03:28:32;;;;;;;1.88;0.98;;;;;;;;;;3598569;39;20758;-72
2021/05/30 03:30:58;;;;;;;2.50;1.00;;;;;;;;;;3598381;39;20880;-72
2021/05/30 03:33:24;;;;;;;2.03;0.90;;;;;;;;;;3600610;39;20372;-72
2021/05/30 03:35:51;;;;;;;1.30;1.00;;;;;;;;;;3602816;39;20468;-72
2021/05/30 03:38:19;;;;;;;1.40;0.90;;;;;;;;;;3598448;39;20490;-72
2021/05/30 03:40:48;;;;;;;1.55;1.15;;;;;;;;;;3598095;39;20379;-72
2021/05/30 03:43:14;;;;;;;1.27;1.10;;;;;;;;;;3598097;40;20381;-72
2021/05/30 03:45:41;;;;;;;2.05;0.82;;;;;;;;;;3593795;39;20645;-73
2021/05/30 03:48:07;;;;;;;1.90;1.00;;;;;;;;;;3598143;39;20834;-73
2021/05/30 03:50:34;;;;;;;2.50;0.88;;;;;;;;;;3594020;39;20362;-73
2021/05/30 03:53:00;;;;;;;1.48;0.77;;;;;;;;;;3596098;39;20376;-72
2021/05/30 03:55:26;;;;;;;1.65;0.80;;;;;;;;;;3587086;40;20527;-73
2021/05/30 03:57:54;;;;;;;1.60;0.70;;;;;;;;;;3595331;39;20370;-72
2021/05/30 04:00:20;;;;;;;0.80;0.60;;;;;;;;;;3597780;39;20389;-73
2021/05/30 04:02:47;;;;;;;1.65;0.85;;;;;;;;;;3599343;39;20477;-72
2021/05/30 04:05:14;;;;;;;1.90;0.90;;;;;;;;;;3590881;40;20451;-72
2021/05/30 04:07:40;;;;;;;1.90;0.77;;;;;;;;;;3595040;39;20408;-71
2021/05/30 04:10:09;;;;;;;0.70;0.65;;;;;;;;;;3599883;39;20363;-72
2021/05/30 04:12:35;;;;;;;1.90;0.90;;;;;;;;;;3595732;39;20734;-72
2021/05/30 04:15:02;;;;;;;1.35;0.70;;;;;;;;;;3591060;39;20386;-72
2021/05/30 04:17:29;;;;;;;1.40;0.70;;;;;;;;;;3588871;40;20421;-73
2021/05/30 04:19:55;;;;;;;1.13;0.82;;;;;;;;;;3598331;39;20424;-72
2021/05/30 04:22:21;;;;;;;1.13;0.60;;;;;;;;;;3597608;39;20425;-72
2021/05/30 04:24:47;;;;;;;1.50;0.90;;;;;;;;;;3598257;39;20392;-72
2021/05/30 04:27:13;;;;;;;2.47;0.70;;;;;;;;;;3591081;39;20388;-72
2021/05/30 04:29:39;;;;;;;1.52;0.60;;;;;;;;;;3598312;40;20402;-72
2021/05/30 04:32:07;;;;;;;1.80;0.70;;;;;;;;;;3596720;39;20386;-72
2021/05/30 04:34:33;;;;;;;1.40;0.60;;;;;;;;;;3595979;39;20379;-72
2021/05/30 04:37:00;;;;;;;1.52;0.70;;;;;;;;;;3599104;39;20754;-72
2021/05/30 04:39:27;;;;;;;1.60;0.70;;;;;;;;;;3597704;39;20372;-72
2021/05/30 04:41:53;;;;;;;1.55;0.82;;;;;;;;;;3596801;39;20404;-72
2021/05/30 04:44:20;;;;;;;1.15;0.60;;;;;;;;;;3594143;39;20390;-73
2021/05/30 04:46:46;;;;;;;1.50;0.80;;;;;;;;;;3600486;39;20380;-72
2021/05/30 04:49:13;;;;;;;1.05;0.80;;;;;;;;;;3585879;40;20402;-72
2021/05/30 04:51:40;;;;;;;0.88;0.70;;;;;;;;;;3596305;40;20380;-72
2021/05/30 04:54:06;;;;;;;2.80;0.80;;;;;;;;;;3597496;39;20396;-72
2021/05/30 04:56:32;;;;;;;1.05;0.80;;;;;;;;;;3597453;39;20391;-72
2021/05/30 04:58:59;;;;;;;1.30;0.70;;;;;;;;;;3597894;39;20376;-72
2021/05/30 05:01:25;;;;;;;1.10;0.80;;;;;;;;;;3595248;39;20384;-73
2021/05/30 05:03:51;;;;;;;2.85;0.80;;;;;;;;;;3601056;39;20405;-72
2021/05/30 05:06:18;;;;;;;2.15;1.10;;;;;;;;;;3596002;39;20380;-72
2021/05/30 05:08:46;;;;;;;1.30;0.70;;;;;;;;;;3598097;39;20416;-73
2021/05/30 05:11:12;;;;;;;2.15;0.90;;;;;;;;;;3601023;39;20423;-73
2021/05/30 05:13:40;;;;;;;1.75;1.10;;;;;;;;;;3603234;39;20419;-72
2021/05/30 05:16:06;;;;;;;1.17;0.68;;;;;;;;;;3597524;39;20392;-73
2021/05/30 05:18:33;;;;;;;1.42;0.70;;;;;;;;;;3604631;39;20382;-72
2021/05/30 05:21:00;;;;;;;1.23;0.70;;;;;;;;;;3601598;39;20740;-73
2021/05/30 05:23:27;;;;;;;2.55;0.88;;;;;;;;;;3599737;39;20654;-73
2021/05/30 05:25:54;;;;;;;2.77;0.67;;;;;;;;;;3590650;39;20796;-73
2021/05/30 05:28:21;;;;;;;1.02;0.70;;;;;;;;;;3597837;39;20365;-72
2021/05/30 05:30:47;;;;;;;1.08;0.60;;;;;;;;;;3597787;39;20368;-73
2021/05/30 05:33:14;;;;;;;0.80;0.70;;;;;;;;;;3592289;39;20736;-72
2021/05/30 05:35:40;;;;;;;1.52;0.80;;;;;;;;;;3589234;39;20655;-72
2021/05/30 05:38:06;;;;;;;1.02;0.68;;;;;;;;;;3597802;39;20353;-72
2021/05/30 05:40:33;;;;;;;1.50;0.70;;;;;;;;;;3597473;39;20361;-72
2021/05/30 05:42:59;;;;;;;1.20;0.65;;;;;;;;;;3594535;39;20374;-72
2021/05/30 05:45:26;;;;;;;0.70;0.50;;;;;;;;;;3594169;39;20388;-72
2021/05/30 05:47:53;;;;;;;0.85;0.60;;;;;;;;;;3595122;39;20359;-73
2021/05/30 05:50:19;;;;;;;0.70;0.60;;;;;;;;;;3582830;40;20399;-73
2021/05/30 05:52:46;;;;;;;1.35;0.60;;;;;;;;;;3590818;39;20381;-72
2021/05/30 05:55:13;;;;;;;1.30;0.70;;;;;;;;;;3597602;39;20371;-72
2021/05/30 05:57:41;;;;;;;1.70;0.60;;;;;;;;;;3597219;39;20768;-72
2021/05/30 06:00:08;;;;;;;1.40;0.70;;;;;;;;;;3594128;39;20452;-72
2021/05/30 06:02:35;;;;;;;1.40;0.70;;;;;;;;;;3592354;39;20401;-71
2021/05/30 06:05:01;;;;;;;0.75;0.65;;;;;;;;;;3604967;39;20375;-73
2021/05/30 06:07:27;;;;;;;1.15;0.70;;;;;;;;;;3596160;39;20418;-73
2021/05/30 06:09:53;;;;;;;1.02;0.60;;;;;;;;;;3599225;39;20408;-72
2021/05/30 06:12:19;;;;;;;2.10;0.70;;;;;;;;;;3594108;39;20490;-72
2021/05/30 06:14:47;;;;;;;2.13;0.60;;;;;;;;;;3591451;39;20375;-72
2021/05/30 06:17:13;;;;;;;0.57;0.52;;;;;;;;;;3594062;39;20388;-72
2021/05/30 06:19:39;;;;;;;2.03;0.70;;;;;;;;;;3592005;39;20349;-72
2021/05/30 06:22:07;;;;;;;1.00;0.70;;;;;;;;;;3593332;40;20758;-72
2021/05/30 06:24:34;;;;;;;1.80;0.70;;;;;;;;;;3592335;39;20378;-73
2021/05/30 06:27:00;;;;;;;0.80;0.60;;;;;;;;;;3589026;39;20374;-72
2021/05/30 06:29:26;;;;;;;0.75;0.57;;;;;;;;;;3588300;39;20375;-72
2021/05/30 06:31:56;;;;;;;0.60;0.50;;;;;;;;;;3597474;39;20365;-72
2021/05/30 06:34:22;;;;;;;1.25;0.60;;;;;;;;;;3595841;39;20379;-72
2021/05/30 06:36:50;;;;;;;2.13;0.60;;;;;;;;;;3597207;39;20503;-73
2021/05/30 06:39:16;;;;;;;1.17;0.80;;;;;;;;;;3593891;39;20385;-72
2021/05/30 06:41:42;;;;;;;1.70;0.70;;;;;;;;;;3594612;40;20360;-72
2021/05/30 06:44:09;;;;;;;1.42;0.63;;;;;;;;;;3594272;39;20808;-73
2021/05/30 06:46:35;;;;;;;0.80;0.60;;;;;;;;;;3592113;39;20651;-73
2021/05/30 06:49:03;;;;;;;2.28;0.80;;;;;;;;;;3594139;39;20630;-72
2021/05/30 06:51:30;;;;;;;1.30;0.85;;;;;;;;;;3597064;40;20397;-72
2021/05/30 06:53:57;;;;;;;1.02;0.70;;;;;;;;;;3594230;39;20460;-72
2021/05/30 06:56:23;;;;;;;1.40;0.80;;;;;;;;;;3596540;39;20421;-72
2021/05/30 06:58:50;;;;;;;1.45;0.90;;;;;;;;;;3594131;39;20868;-72
2021/05/30 07:01:18;;;;;;;0.87;0.70;;;;;;;;;;3594363;39;20388;-72
2021/05/30 07:03:44;;;;;;;1.65;0.80;;;;;;;;;;3595049;39;20398;-73
2021/05/30 07:06:11;;;;;;;1.35;0.77;;;;;;;;;;3595322;39;20369;-73
2021/05/30 07:08:38;;;;;;;1.70;0.80;;;;;;;;;;3577175;40;20809;-72
2021/05/30 07:11:04;;;;;;;0.75;0.70;;;;;;;;;;3578171;40;20622;-73
2021/05/30 07:13:30;;;;;;;2.00;0.80;;;;;;;;;;3578288;40;20765;-72
2021/05/30 07:15:56;;;;;;;0.80;0.70;;;;;;;;;;3582118;40;20390;-72
2021/05/30 07:18:23;;;;;;;1.33;0.83;;;;;;;;;;3580460;40;20383;-72
2021/05/30 07:20:50;;;;;;;0.85;0.70;;;;;;;;;;3577119;40;20394;-72
2021/05/30 07:23:17;;;;;;;1.60;0.80;;;;;;;;;;3578338;40;20376;-72
2021/05/30 07:25:44;;;;;;;1.10;0.60;;;;;;;;;;3576462;40;20388;-72
2021/05/30 07:28:10;;;;;;;1.25;0.75;;;;;;;;;;3565012;40;20669;-72
2021/05/30 07:30:36;;;;;;;0.80;0.63;;;;;;;;;;3572250;40;20728;-72
2021/05/30 07:33:03;;;;;;;2.60;0.70;;;;;;;;;;3572343;40;20376;-72
2021/05/30 07:35:29;;;;;;;1.77;0.90;;;;;;;;;;3572395;40;20366;-72
2021/05/30 07:37:55;;;;;;;1.13;0.80;;;;;;;;;;3573284;40;20842;-72
2021/05/30 07:40:23;;;;;;;1.60;0.70;;;;;;;;;;3575981;40;20384;-73
2021/05/30 07:42:49;;;;;;;1.50;0.90;;;;;;;;;;3571116;40;20392;-72
2021/05/30 07:45:16;;;;;;;0.90;0.60;;;;;;;;;;3573512;40;20392;-72
2021/05/30 07:47:42;;;;;;;0.80;0.68;;;;;;;;;;3572604;40;20405;-72
2021/05/30 07:50:09;;;;;;;1.58;0.85;;;;;;;;;;3575376;40;20411;-72
2021/05/30 07:52:35;;;;;;;0.80;0.80;;;;;;;;;;3574113;40;20376;-72
2021/05/30 07:55:02;;;;;;;1.00;0.70;;;;;;;;;;3575919;40;20697;-72
2021/05/30 07:57:29;;;;;;;1.55;0.70;;;;;;;;;;3573083;40;20661;-72
2021/05/30 07:59:55;;;;;;;0.95;0.70;;;;;;;;;;3576726;40;20396;-73
2021/05/30 08:02:21;;;;;;;1.30;0.80;;;;;;;;;;3564201;40;20417;-73
2021/05/30 08:04:47;;;;;;;1.02;0.60;;;;;;;;;;3573447;40;20372;-73
2021/05/30 08:07:13;;;;;;;1.98;0.80;;;;;;;;;;3581471;40;20413;-73
2021/05/30 08:09:39;;;;;;;1.13;0.60;;;;;;;;;;3595900;39;20466;-73
2021/05/30 08:12:06;;;;;;;0.93;0.60;;;;;;;;;;3599705;39;20440;-73
2021/05/30 08:14:35;;;;;;;2.40;1.00;;;;;;;;;;3587298;40;20401;-72
2021/05/30 08:17:02;;;;;;;1.75;0.90;;;;;;;;;;3598418;39;20371;-73
2021/05/30 08:19:28;;;;;;;1.95;0.80;;;;;;;;;;3598957;39;20378;-74
2021/05/30 08:21:54;;;;;;;0.70;0.60;;;;;;;;;;3594928;39;20400;-73
2021/05/30 08:24:20;;;;;;;1.10;0.80;;;;;;;;;;3598654;39;20473;-73
2021/05/30 08:26:46;;;;;;;2.08;0.82;;;;;;;;;;3593955;40;20408;-73
2021/05/30 08:29:13;;;;;;;1.63;0.68;;;;;;;;;;3594441;40;20468;-73
2021/05/30 08:31:40;;;;;;;1.88;0.75;;;;;;;;;;3598220;39;20389;-74
2021/05/30 08:34:06;;;;;;;4.00;0.70;;;;;;;;;;3596366;39;20396;-72
2021/05/30 08:36:32;;;;;;;2.60;0.82;;;;;;;;;;3594360;39;20542;-74
2021/05/30 08:38:59;;;;;;;0.80;0.60;;;;;;;;;;3602292;39;20384;-73
2021/05/30 08:41:25;;;;;;;1.37;0.60;;;;;;;;;;3584482;40;20482;-74
2021/05/30 08:43:51;;;;;;;1.05;0.63;;;;;;;;;;3594646;39;20372;-73
2021/05/30 08:46:17;;;;;;;1.23;0.55;;;;;;;;;;3596669;39;20374;-73
2021/05/30 08:48:44;;;;;;;0.70;0.57;;;;;;;;;;3601309;39;20372;-73
2021/05/30 08:51:12;;;;;;;0.60;0.50;;;;;;;;;;3591008;39;20404;-79
2021/05/30 08:53:39;;;;;;;3.20;0.80;;;;;;;;;;3596942;39;20363;-73
2021/05/30 08:56:06;;;;;;;0.57;0.50;;;;;;;;;;3597985;39;21710;-73
2021/05/30 08:58:36;;;;;;;0.57;0.40;;;;;;;;;;3589136;40;20650;-72
2021/05/30 09:01:10;;;;;;;0.90;0.47;;;;;;;;;;3597614;39;20385;-71
2021/05/30 09:03:50;;;;;;;0.82;0.35;;;;;;;;;;3596521;39;20668;-72
2021/05/30 09:06:17;;;;;;;0.28;0.28;;;21.70;83.20;;;;;;3591738;39;20418;-71
2021/05/30 09:08:44;;;;;;;0.40;0.30;;;;;;;;;;3600521;39;20613;-72
2021/05/30 09:11:10;;;;;;;0.50;0.30;;;;;;;;;;3600496;39;20398;-73
2021/05/30 09:13:53;;;;;;;0.95;0.40;;;;;;;;;;3600888;39;20386;-73
2021/05/30 09:16:23;;;;;;;0.88;0.38;;;;;;;;;;3598439;39;20427;-73
2021/05/30 09:18:50;;;;;;;1.50;0.50;;;21.90;79.20;;;;;;3601598;39;20376;-72
2021/05/30 09:21:16;;;;;;;1.00;0.40;;;21.70;79.70;;;;;;3592014;39;20486;-73
2021/05/30 09:23:44;;;;;;;0.77;0.32;;;21.80;78.60;;;;;;3600911;39;20399;-73
2021/05/30 09:26:12;;;;;;;0.90;0.30;;;22.00;79.90;;;;;;3601174;39;20399;-72
2021/05/30 09:28:39;;;;;;;0.40;0.30;;;22.10;78.40;;;;;;3601439;39;20372;-73
2021/05/30 09:31:05;;;;;;;1.00;0.40;;;22.20;78.00;;;;;;3601352;39;20733;-72
2021/05/30 09:33:32;;;;;;;0.93;0.33;;;21.90;76.70;;;;;;3600024;39;20387;-72
2021/05/30 09:36:02;;;;;;;1.40;0.30;;;22.00;75.10;;;;;;3598758;39;20418;-72
2021/05/30 09:38:35;;;;;;;0.93;0.20;;;21.80;75.00;;;;;;3601129;39;20416;-73
2021/05/30 09:41:03;;;;;;;0.50;0.20;;;21.90;78.40;;;;;;3589477;39;20406;-73
2021/05/30 09:43:40;;;;;;;0.88;0.22;;;22.10;75.90;;;;;;3599667;39;20515;-73
2021/05/30 09:46:07;;;;;;;0.20;0.20;;;;;;;;;;3597586;39;20363;-73
2021/05/30 09:48:35;;;;;;;0.63;0.40;;;;;;;;;;3599132;39;20415;-73
2021/05/30 09:51:21;;;;;;;0.30;0.23;;;22.20;76.50;;;;;;3600430;39;20403;-72
2021/05/30 09:53:56;;;;;;;0.73;0.38;;;23.00;76.40;;;;;;3592218;39;20379;-73
2021/05/30 09:56:31;;;;;;;0.60;0.30;;;22.70;75.20;;;;;;3600682;39;20397;-73
2021/05/30 09:58:58;;;;;;;0.70;0.30;;;22.50;78.60;;;;;;3600054;39;20417;-73
2021/05/30 10:01:25;;;;;;;0.90;0.40;;;22.90;74.00;;;;;;3601920;39;20377;-73
2021/05/30 10:03:52;;;;;;;0.30;0.25;;;;;;;;;;3599123;39;20409;-73
2021/05/30 10:06:19;;;;;;;1.30;0.30;;;22.60;75.50;;;;;;3591054;39;20390;-73
2021/05/30 10:08:46;;;;;;;0.70;0.30;;;22.40;74.90;;;;;;3596833;39;20416;-73
2021/05/30 10:11:12;;;;;;;0.80;0.30;;;;;;;;;;3596188;39;20391;-73
2021/05/30 10:13:38;;;;;;;0.43;0.30;;;;;;;;;;3593737;39;20415;-73
2021/05/30 10:16:05;;;;;;;1.50;0.32;;;;;;;;;;3594509;39;20376;-73
2021/05/30 10:18:33;;;;;;;0.50;0.30;;;;;;;;;;3591663;39;20398;-72
2021/05/30 10:21:00;;;;;;;1.17;0.40;;;;;;;;;;3592811;39;20378;-73
2021/05/30 10:23:28;;;;;;;1.05;0.28;;;;;;;;;;3594012;39;20371;-73
2021/05/30 10:26:12;;;;;;;2.40;0.45;;;22.30;75.70;;;;;;3593935;39;20693;-73
2021/05/30 10:28:46;;;;;;;0.75;0.40;;;21.60;77.90;;;;;;3598866;39;20365;-73
2021/05/30 10:31:18;;;;;;;0.30;0.30;;;21.60;79.60;;;;;;3596163;40;20402;-74
2021/05/30 10:34:07;;;;;;;0.90;0.30;;;;;;;;;;3586197;40;20444;-73
2021/05/30 10:36:33;;;;;;;1.20;0.30;;;;;;;;;;3594056;39;20397;-73
2021/05/30 10:39:00;;;;;;;0.45;0.20;;;;;;;;;;3595301;39;20683;-71
2021/05/30 10:41:26;;;;;;;0.60;0.30;;;21.90;79.00;;;;;;3598254;39;20482;-72
2021/05/30 10:43:52;;;;;;;1.50;0.40;;;22.90;76.20;;;;;;3596940;39;20710;-71
2021/05/30 10:46:19;;;;;;;1.40;0.30;;;;;;;;;;3598891;39;20407;-71
2021/05/30 10:48:47;;;;;;;1.00;0.30;;;;;;;;;;3599092;39;20357;-72
2021/05/30 10:53:49;;;;;;;1.02;0.43;;;21.90;81.40;;;;;;3597995;39;20364;-72
2021/05/30 10:56:18;;;;;;;1.05;0.40;;;22.00;80.20;;;;;;3601252;39;20387;-77
2021/05/30 10:59:05;;;;;;;0.70;0.43;;;21.60;81.80;;;;;;3601605;39;20402;-73
2021/05/30 11:01:46;;;;;;;2.00;0.50;;;21.50;82.00;;;;;;3602547;39;20801;-73
2021/05/30 11:04:37;;;;;;;1.00;0.30;;;21.30;82.10;;;;;;3599250;39;20664;-73
2021/05/30 11:07:20;;;;;;;0.35;0.30;;;21.40;83.40;;;;;;3591721;39;20414;-73
2021/05/30 11:10:02;;;;;;;1.80;0.40;;;21.50;82.60;;;;;;3586749;39;20394;-73
2021/05/30 11:12:31;;;;;;;1.50;0.50;;;21.50;81.90;;;;;;3602051;39;20388;-73
2021/05/30 11:15:26;;;;;;;0.95;0.40;;;21.40;84.10;;;;;;3599647;39;20446;-72
2021/05/30 11:17:53;;;;;;;0.80;0.30;;;21.70;84.00;;;;;;3601942;39;20437;-72
2021/05/30 11:20:22;;;;;;;0.43;0.30;;;21.90;82.80;;;;;;3599271;39;20621;-72
2021/05/30 11:22:50;;;;;;;1.40;0.40;;;22.10;81.70;;;;;;3600973;39;20402;-72
2021/05/30 11:25:19;;;;;;;1.20;0.30;;;22.10;83.20;;;;;;3598443;39;20381;-73
2021/05/30 11:27:54;;;;;;;0.80;0.30;;;;;;;;;;3597876;39;20408;-73
2021/05/30 11:30:40;;;;;;;1.27;0.30;;;;;;;;;;3602787;39;20361;-72
2021/05/30 11:33:07;;;;;;;1.00;0.30;;;22.20;81.50;;;;;;3601395;39;20455;-72
2021/05/30 11:35:33;;;;;;;2.58;0.40;;;22.20;77.00;;;;;;3590778;39;20400;-71
2021/05/30 11:37:59;;;;;;;1.27;0.30;;;21.70;79.10;;;;;;3593458;39;20394;-72
2021/05/30 11:40:26;;;;;;;0.85;0.35;;;22.00;78.80;;;;;;3597363;39;20418;-72
2021/05/30 11:42:54;;;;;;;0.90;0.50;;;22.00;79.00;;;;;;3599314;39;20383;-72
2021/05/30 11:45:30;;;;;;;1.42;0.40;;;22.10;78.50;;;;;;3601750;39;20486;-72
2021/05/30 11:48:08;;;;;;;1.00;0.30;;;22.10;79.00;;;;;;3600648;39;20369;-73
2021/05/30 11:50:35;;;;;;;1.10;0.40;;;;;;;;;;3600875;39;20853;-72
2021/05/30 11:53:06;;;;;;;1.02;0.35;;;;;;;;;;3601752;39;20752;-73
2021/05/30 11:55:32;;;;;;;0.50;0.30;;;22.30;76.50;;;;;;3603525;39;20360;-73
2021/05/30 11:58:06;;;;;;;1.10;0.35;;;22.50;76.60;;;;;;3601907;39;20392;-73
2021/05/30 12:00:32;;;;;;;0.93;0.40;;;22.30;77.50;;;;;;3599769;39;20649;-73
2021/05/30 12:03:06;;;;;;;1.02;0.30;;;22.50;76.90;;;;;;3603372;39;20400;-73
2021/05/30 12:05:32;;;;;;;1.80;0.43;;;22.40;77.90;;;;;;3601613;39;20468;-73
2021/05/30 12:07:58;;;;;;;0.80;0.47;;;22.80;75.70;;;;;;3602209;39;20416;-73
2021/05/30 12:10:23;;;;;;;1.30;0.30;;;22.80;75.90;;;;;;3593590;39;20784;-72
2021/05/30 12:12:49;;;;;;;1.80;0.30;;;22.90;76.20;;;;;;3596101;39;20633;-72
2021/05/30 12:15:18;;;;;;;1.60;0.30;;;23.00;75.30;;;;;;3594581;39;20392;-72
2021/05/30 12:17:59;;;;;;;1.27;0.40;;;23.20;74.90;;;;;;3596318;39;20388;-72
2021/05/30 12:20:26;;;;;;;1.67;0.50;;;23.20;74.50;;;;;;3601674;39;20369;-72
2021/05/30 12:22:54;;;;;;;0.47;0.38;;;23.20;75.20;;;;;;3592088;40;20382;-72
2021/05/30 12:25:20;;;;;;;0.77;0.40;;;22.90;74.60;;;;;;3589482;39;20379;-72
2021/05/30 12:27:46;;;;;;;1.50;0.50;;;22.70;75.90;;;;;;3596207;39;20842;-72
2021/05/30 12:30:14;;;;;;;0.98;0.40;;;22.70;77.80;;;;;;3593430;40;20396;-72
2021/05/30 12:32:48;;;;;;;0.47;0.30;;;22.70;75.60;;;;;;3592615;40;20389;-72
2021/05/30 12:35:14;;;;;;;1.40;0.40;;;22.80;75.80;;;;;;3593802;39;20640;-72
2021/05/30 12:37:42;;;;;;;1.50;0.60;;;23.00;75.50;;;;;;3596254;39;20393;-72
2021/05/30 12:40:10;;;;;;;0.38;0.38;;;23.00;75.10;;;;;;3593584;39;20393;-72
2021/05/30 12:42:38;;;;;;;1.63;0.47;;;23.00;75.70;;;;;;3589067;39;20406;-72
2021/05/30 12:45:07;;;;;;;0.68;0.47;;;22.90;76.10;;;;;;3580863;40;20742;-73
2021/05/30 12:47:40;;;;;;;0.57;0.40;;;22.60;77.30;;;;;;3599095;39;20494;-72
2021/05/30 12:50:08;;;;;;;2.55;0.50;;;22.70;76.60;;;;;;3591869;40;20428;-70
2021/05/30 12:52:43;;;;;;;1.42;0.50;;;22.60;77.60;;;;;;3595656;39;20384;-73
2021/05/30 12:55:10;;;;;;;1.10;0.70;;;;;;;;;;3595781;39;20374;-72
2021/05/30 12:57:37;;;;;;;2.05;0.60;;;;;;;;;;3594394;39;20462;-72
2021/05/30 13:00:04;;;;;;;1.40;0.40;;;;;;;;;;3596558;40;20385;-72
2021/05/30 13:02:30;;;;;;;1.20;0.55;;;;;;;;;;3594285;40;20851;-72
2021/05/30 13:04:57;;;;;;;0.60;0.40;;;;;;;;;;3595261;39;20375;-72
2021/05/30 13:07:30;;;;;;;1.20;0.50;;;;;;;;;;3595734;40;20427;-73
2021/05/30 13:10:01;;;;;;;1.23;0.40;;;22.50;78.40;;;;;;3594936;39;20403;-72
2021/05/30 13:12:33;;;;;;;0.75;0.50;;;22.90;79.30;;;;;;3598496;40;20434;-72
2021/05/30 13:15:21;;;;;;;1.42;0.50;;;23.30;76.50;;;;;;3597815;39;20450;-72
2021/05/30 13:18:09;;;;;;;1.10;0.43;;;23.60;74.90;;;;;;3598013;39;20388;-73
2021/05/30 13:20:38;;;;;;;0.75;0.40;;;23.10;75.70;;;;;;3598926;39;20628;-72
2021/05/30 13:23:07;;;;;;;2.00;0.60;;;23.00;76.40;;;;;;3601729;39;20369;-72
2021/05/30 13:25:37;;;;;;;1.83;0.60;;;23.10;76.70;;;;;;3588412;39;20390;-72
2021/05/30 13:28:24;;;;;;;1.30;0.70;;;22.90;76.20;;;;;;3588008;39;20684;-72
2021/05/30 13:30:53;;;;;;;0.80;0.50;;;22.60;76.80;;;;;;3597210;39;20373;-72
2021/05/30 13:33:20;;;;;;;1.80;0.47;;;22.70;77.40;;;;;;3597700;39;20380;-72
2021/05/30 13:35:47;;;;;;;1.17;0.40;;;22.90;77.80;;;;;;3596630;39;20622;-72
2021/05/30 13:38:14;;;;;;;0.70;0.40;;;23.10;78.60;;;;;;3584750;40;20406;-72
2021/05/30 13:40:43;;;;;;;1.70;0.60;;;23.40;78.00;;;;;;3592069;39;20397;-72
2021/05/30 13:43:10;;;;;;;2.35;0.70;;;23.50;76.10;;;;;;3596744;39;20388;-72
2021/05/30 13:45:36;;;;;;;1.40;0.63;;;23.50;76.20;;;;;;3597206;39;20396;-72
2021/05/30 13:48:03;;;;;;;0.70;0.60;;;23.40;77.80;;;;;;3590131;39;20777;-72
2021/05/30 13:50:30;;;;;;;1.35;0.63;;;23.40;76.50;;;;;;3594814;39;20428;-73
2021/05/30 13:52:56;;;;;;;2.45;1.05;;;23.40;76.10;;;;;;3592511;39;20404;-72
2021/05/30 13:55:23;;;;;;;1.27;0.70;;;;;;;;;;3595257;40;20856;-73
2021/05/30 13:57:49;;;;;;;1.20;0.70;;;23.00;77.20;;;;;;3596698;39;20409;-72
2021/05/30 14:00:16;;;;;;;1.00;0.70;;;22.70;78.50;;;;;;3599069;39;20853;-72
2021/05/30 14:02:43;;;;;;;1.35;0.70;;;23.20;76.80;;;;;;3593567;39;20394;-72
2021/05/30 14:05:10;;;;;;;2.90;0.93;;;23.50;78.00;;;;;;3594679;39;20374;-72
2021/05/30 14:07:36;;;;;;;1.60;0.80;;;23.80;76.90;;;;;;3586525;40;20517;-72
2021/05/30 14:10:02;;;;;;;1.38;0.95;;;24.10;76.20;;;;;;3597500;39;20408;-72
2021/05/30 14:12:29;;;;;;;1.77;0.80;;;23.90;75.80;;;;;;3602097;39;20750;-72
2021/05/30 14:14:55;;;;;;;1.00;0.82;;;23.70;76.10;;;;;;3587682;40;20373;-72